Time;durP1;ratioP1;P1;durP2;ratioP2;P2;SDS_P1;SDS_P2;PMS_P1;PMS_P2;Temp;Humidity;BMP_temperature;BMP_pressure;BME280_temperature;BME280_humidity;BME280_pressure;Samples;Min_cycle;Max_cycle;Signal;HPM_P1;HPM_P2
2023/06/26 00:01:42;;;;;;;7.93;6.35;;;;;;;24.37;55.84;100994.56;3572053;40;20067;-72
2023/06/26 00:04:14;;;;;;;7.35;6.00;;;;;;;24.46;55.49;100995.41;3574381;40;20096;-73
2023/06/26 00:06:41;;;;;;;6.63;5.63;;;;;;;24.36;55.83;100965.41;3564315;40;20052;-74
2023/06/26 00:09:06;;;;;;;6.28;5.68;;;;;;;24.54;55.34;100996.19;3573214;40;20060;-74
2023/06/26 00:11:33;;;;;;;6.90;6.30;;;;;;;24.41;55.69;100970.34;3573806;40;20072;-72
2023/06/26 00:14:02;;;;;;;7.10;6.50;;;;;;;24.55;55.77;100994.34;3559821;40;20062;-72
2023/06/26 00:16:28;;;;;;;8.65;6.25;;;;;;;24.48;56.16;100993.31;3574474;40;20327;-72
2023/06/26 00:18:54;;;;;;;8.65;7.18;;;;;;;24.44;55.66;100981.00;3570464;40;20563;-74
2023/06/26 00:21:19;;;;;;;6.80;6.10;;;;;;;24.44;55.54;100983.75;3573844;40;20141;-72
2023/06/26 00:23:46;;;;;;;6.70;5.90;;;;;;;24.40;56.72;100990.63;3563148;40;20102;-73
2023/06/26 00:26:12;;;;;;;7.78;6.43;;;;;;;24.33;56.04;100988.59;3574676;40;20104;-73
2023/06/26 00:28:38;;;;;;;7.80;6.50;;;;;;;24.32;56.24;100981.38;3571490;40;20057;-71
2023/06/26 00:31:04;;;;;;;7.90;6.50;;;;;;;24.29;55.99;100984.50;3563710;40;20057;-72
2023/06/26 00:33:30;;;;;;;7.00;6.40;;;;;;;24.31;55.87;100993.41;3572537;40;20056;-73
2023/06/26 00:35:56;;;;;;;7.15;6.40;;;;;;;24.28;55.94;100985.50;3574861;40;20441;-71
2023/06/26 00:38:21;;;;;;;7.22;6.50;;;;;;;24.23;56.31;100985.22;3575110;40;20732;-72
2023/06/26 00:40:47;;;;;;;7.70;6.88;;;;;;;24.17;56.73;100983.19;3574829;40;20059;-72
2023/06/26 00:43:12;;;;;;;7.18;6.47;;;;;;;24.15;56.46;100981.66;3571915;40;20085;-72
2023/06/26 00:45:38;;;;;;;7.90;6.68;;;;;;;24.06;56.71;100983.59;3572774;39;20329;-72
2023/06/26 00:48:05;;;;;;;6.63;6.03;;;;;;;23.89;57.10;100962.75;3571339;40;20057;-72
2023/06/26 00:50:32;;;;;;;7.38;6.47;;;;;;;24.01;56.87;100995.13;3572985;40;20064;-72
2023/06/26 00:53:00;;;;;;;7.65;6.95;;;;;;;23.97;56.60;101003.88;3568227;40;20080;-72
2023/06/26 00:55:27;;;;;;;7.65;6.65;;;;;;;23.87;56.94;101001.34;3570678;39;20800;-72
2023/06/26 00:57:54;;;;;;;9.00;6.93;;;;;;;23.75;57.13;100987.13;3568862;40;20063;-72
2023/06/26 01:00:20;;;;;;;7.00;6.30;;;;;;;23.74;57.23;101001.91;3569785;40;20040;-73
2023/06/26 01:02:46;;;;;;;8.48;6.85;;;;;;;23.71;57.09;101002.25;3574796;40;20064;-72
2023/06/26 01:05:20;;;;;;;7.38;6.50;;;;;;;23.62;57.02;101006.03;3570643;40;20060;-73
2023/06/26 01:07:50;;;;;;;9.73;6.80;;;;;;;23.59;56.98;101009.13;3559391;40;20413;-71
2023/06/26 01:10:17;;;;;;;7.97;7.00;;;;;;;23.58;57.24;101010.16;3572690;40;20056;-73
2023/06/26 01:12:44;;;;;;;7.47;6.65;;;;;;;23.36;57.38;100987.06;3570671;40;20048;-71
2023/06/26 01:15:10;;;;;;;7.32;6.63;;;;;;;23.47;57.97;101007.75;3568543;40;20099;-71
2023/06/26 01:17:40;;;;;;;6.88;6.25;;;;;;;23.46;57.29;101017.03;3555744;40;20657;-71
2023/06/26 01:20:08;;;;;;;6.80;6.13;;;;;;;23.20;57.56;100979.69;3572226;40;21493;-72
2023/06/26 01:23:22;;;;;;;7.35;6.57;;;;;;;23.33;57.38;101015.69;3570471;40;20054;-71
2023/06/26 01:26:18;;;;;;;13.20;6.15;;;;;;;23.11;57.54;100989.81;3572048;39;20052;-71
2023/06/26 01:28:45;;;;;;;8.90;6.07;;;;;;;23.23;57.42;101020.50;3571923;40;20060;-71
2023/06/26 01:31:14;;;;;;;6.60;5.80;;;;;;;23.24;57.63;101029.59;3573288;40;20063;-71
2023/06/26 01:33:42;;;;;;;7.25;6.22;;;;;;;23.16;57.84;101024.97;3573062;40;20060;-71
2023/06/26 01:36:08;;;;;;;7.65;6.20;;;;;;;23.17;58.02;101026.69;3571124;40;20067;-72
2023/06/26 01:38:34;;;;;;;7.55;5.68;;;;;;;23.11;57.88;101021.88;3572177;40;20055;-73
2023/06/26 01:41:00;;;;;;;11.52;6.10;;;;;;;23.11;58.19;101032.84;3573076;40;21159;-72
2023/06/26 01:43:34;;;;;;;6.60;5.53;;;;;;;23.08;58.19;101024.97;3569767;40;20049;-72
2023/06/26 01:46:26;;;;;;;7.28;5.60;;;;;;;23.01;57.96;101033.03;3562776;40;20063;-73
2023/06/26 01:49:10;;;;;;;6.07;5.47;;;;;;;22.94;58.21;101038.34;3571657;40;20115;-72
2023/06/26 01:51:47;;;;;;;5.50;5.00;;;;;;;22.90;58.39;101034.19;3570263;40;20425;-71
2023/06/26 01:54:21;;;;;;;5.80;5.20;;;;;;;22.80;58.37;101038.94;3570061;40;20071;-72
2023/06/26 01:56:53;;;;;;;6.22;4.82;;;;;;;22.80;58.44;101049.91;3570267;40;20056;-71
2023/06/26 01:59:22;;;;;;;7.63;5.45;;;;;;;22.76;58.56;101056.78;3572144;40;20077;-71
2023/06/26 02:01:48;;;;;;;5.82;5.32;;;;;;;22.72;58.36;101060.88;3566475;40;20097;-73
2023/06/26 02:04:13;;;;;;;8.13;5.22;;;;;;;22.70;58.88;101060.19;3568528;39;20475;-70
2023/06/26 02:06:39;;;;;;;8.02;5.22;;;;;;;22.66;59.12;101056.06;3570823;40;20064;-72
2023/06/26 02:09:05;;;;;;;5.55;4.72;;;;;;;22.63;59.45;101053.66;3568338;40;20064;-71
2023/06/26 02:11:30;;;;;;;5.90;5.30;;;;;;;22.59;58.88;101064.13;3571464;40;20111;-71
2023/06/26 02:13:56;;;;;;;8.18;5.20;;;;;;;22.54;59.46;101051.94;3570648;40;20416;-71
2023/06/26 02:16:21;;;;;;;5.78;5.18;;;;;;;22.48;59.59;101048.81;3571178;40;20553;-70
2023/06/26 02:18:47;;;;;;;7.43;5.30;;;;;;;22.43;59.97;101059.44;3571443;40;20447;-71
2023/06/26 02:21:13;;;;;;;6.22;5.03;;;;;;;22.38;60.05;101058.22;3567143;40;20056;-72
2023/06/26 02:23:39;;;;;;;6.40;5.20;;;;;;;22.32;59.98;101051.53;3571161;39;20451;-75
2023/06/26 02:26:05;;;;;;;7.22;4.88;;;;;;;22.19;59.64;101040.19;3560533;40;20067;-72
2023/06/26 02:28:31;;;;;;;5.22;4.53;;;;;;;22.12;59.22;101042.69;3575426;40;20055;-71
2023/06/26 02:30:56;;;;;;;8.93;4.65;;;;;;;22.13;59.08;101052.63;3571045;40;20421;-72
2023/06/26 02:33:22;;;;;;;6.95;4.47;;;;;;;22.09;58.42;101055.84;3570087;40;20113;-71
2023/06/26 02:35:50;;;;;;;5.80;4.07;;;;;;;22.05;58.60;101057.22;3572258;40;20394;-73
2023/06/26 02:38:16;;;;;;;6.88;4.13;;;;;;;22.00;58.23;101061.28;3559392;40;20130;-72
2023/06/26 02:40:42;;;;;;;6.60;4.32;;;;;;;21.94;58.38;101061.09;3567882;40;20494;-74
2023/06/26 02:43:07;;;;;;;5.22;3.75;;;;;;;21.88;58.47;101065.31;3572072;40;20307;-71
2023/06/26 02:45:33;;;;;;;6.80;4.32;;;;;;;21.86;58.97;101063.78;3575408;39;20104;-71
2023/06/26 02:47:59;;;;;;;5.57;4.20;;;;;;;21.82;58.39;101074.22;3558713;40;20417;-70
2023/06/26 02:50:24;;;;;;;7.65;4.00;;;;;;;21.80;58.83;101078.97;3560709;40;20410;-71
2023/06/26 02:52:52;;;;;;;5.05;4.00;;;;;;;21.71;58.73;101071.72;3569503;40;20070;-71
2023/06/26 02:55:20;;;;;;;7.93;4.40;;;;;;;21.55;58.73;101058.81;3570438;39;20130;-68
2023/06/26 02:57:46;;;;;;;6.32;3.90;;;;;;;21.72;58.81;101089.84;3560061;40;20056;-70
2023/06/26 03:00:15;;;;;;;7.72;4.25;;;;;;;21.65;59.55;101086.06;3571526;40;20472;-71
2023/06/26 03:02:40;;;;;;;4.57;3.92;;;;;;;21.64;60.17;101098.03;3574155;40;20062;-70
2023/06/26 03:05:06;;;;;;;7.40;4.07;;;;;;;21.61;60.24;101103.81;3569191;40;20120;-72
2023/06/26 03:07:32;;;;;;;7.47;4.28;;;;;;;21.58;60.85;101093.19;3570894;40;20068;-71
2023/06/26 03:09:57;;;;;;;7.38;4.45;;;;;;;21.54;61.34;101104.47;3569849;40;20067;-70
2023/06/26 03:12:24;;;;;;;5.25;3.85;;;;;;;21.53;61.21;101096.41;3570547;40;20411;-71
2023/06/26 03:14:50;;;;;;;7.15;4.43;;;;;;;21.42;61.94;101094.78;3562402;40;20062;-70
2023/06/26 03:17:15;;;;;;;6.40;4.15;;;;;;;21.46;61.65;101104.38;3570059;40;20626;-69
2023/06/26 03:19:41;;;;;;;10.02;4.85;;;;;;;21.43;61.89;101107.44;3573444;40;20413;-68
2023/06/26 03:22:06;;;;;;;7.55;4.03;;;;;;;21.43;62.62;101099.22;3571963;40;20067;-69
2023/06/26 03:24:33;;;;;;;7.55;4.30;;;;;;;21.45;63.04;101099.09;3570175;40;20135;-70
2023/06/26 03:26:59;;;;;;;6.97;3.83;;;;;;;21.45;62.69;101096.34;3564030;40;20060;-70
2023/06/26 03:29:25;;;;;;;7.53;4.40;;;;;;;21.38;62.61;101096.13;3572638;40;20064;-68
2023/06/26 03:31:51;;;;;;;5.85;4.28;;;;;;;21.35;63.13;101090.97;3572846;40;20690;-68
2023/06/26 03:34:16;;;;;;;7.10;4.18;;;;;;;21.46;62.89;101104.38;3576517;39;20814;-69
2023/06/26 03:36:42;;;;;;;7.63;4.25;;;;;;;21.20;62.81;101060.56;3572690;40;20054;-66
2023/06/26 03:39:08;;;;;;;6.45;4.53;;;;;;;21.37;63.08;101093.53;3572081;40;20411;-68
2023/06/26 03:41:34;;;;;;;5.03;4.20;;;;;;;21.45;63.15;101101.81;3573906;40;20061;-68
2023/06/26 03:44:00;;;;;;;8.20;4.03;;;;;;;21.43;63.17;101101.97;3564186;40;20077;-68
2023/06/26 03:46:26;;;;;;;9.73;4.13;;;;;;;21.39;64.01;101097.84;3571939;40;20056;-68
2023/06/26 03:48:52;;;;;;;10.48;4.45;;;;;;;21.40;64.01;101104.16;3571450;40;20352;-68
2023/06/26 03:51:17;;;;;;;8.93;4.22;;;;;;;21.35;64.29;101106.50;3570210;40;20066;-70
2023/06/26 03:53:43;;;;;;;9.32;4.78;;;;;;;21.08;65.16;101065.41;3575012;39;20059;-67
2023/06/26 03:56:09;;;;;;;8.80;4.85;;;;;;;21.33;64.79;101112.13;3574336;40;20445;-69
2023/06/26 03:58:34;;;;;;;9.50;4.88;;;;;;;21.27;65.33;101110.00;3576983;40;20089;-66
2023/06/26 04:01:00;;;;;;;8.45;4.68;;;;;;;21.29;66.01;101122.50;3570498;40;20108;-68
2023/06/26 04:03:26;;;;;;;7.38;4.20;;;;;;;21.29;65.58;101116.19;3572893;40;20072;-70
2023/06/26 04:05:52;;;;;;;7.40;4.20;;;;;;;21.18;65.58;101103.59;3573426;40;20143;-68
2023/06/26 04:08:18;;;;;;;10.68;5.05;;;;;;;21.29;66.23;101135.34;3574197;40;20074;-68
2023/06/26 04:10:45;;;;;;;10.27;5.13;;;;;;;21.27;66.68;101134.63;3572412;40;20120;-70
2023/06/26 04:13:11;;;;;;;6.72;4.47;;;;;;;21.27;66.60;101140.09;3570709;40;20071;-70
2023/06/26 04:15:37;;;;;;;9.52;4.80;;;;;;;21.27;67.12;101148.28;3572757;40;20317;-66
2023/06/26 04:18:03;;;;;;;11.95;4.80;;;;;;;21.29;67.15;101149.84;3570940;40;20080;-68
2023/06/26 04:20:28;;;;;;;11.93;5.40;;;;;;;21.23;67.44;101152.34;3571577;40;20056;-68
2023/06/26 04:22:54;;;;;;;8.88;4.75;;;;;;;21.23;67.44;101146.91;3570556;40;20068;-68
2023/06/26 04:25:20;;;;;;;10.75;5.00;;;;;;;21.17;67.79;101140.16;3571619;40;20423;-68
2023/06/26 04:27:45;;;;;;;13.18;5.10;;;;;;;21.21;68.21;101151.66;3572288;40;20064;-67
2023/06/26 04:30:12;;;;;;;13.13;5.20;;;;;;;21.29;68.46;101151.75;3570629;40;20204;-69
2023/06/26 04:32:38;;;;;;;9.75;5.25;;;;;;;21.21;69.00;101143.44;3569744;40;20705;-68
2023/06/26 04:35:03;;;;;;;11.98;5.10;;;;;;;20.97;68.44;101106.66;3571886;39;20383;-67
2023/06/26 04:37:29;;;;;;;12.20;5.15;;;;;;;21.37;68.94;101151.81;3573508;40;20071;-68
2023/06/26 04:39:55;;;;;;;11.50;5.00;;;;;;;21.37;69.01;101157.28;3563171;40;20068;-67
2023/06/26 04:42:23;;;;;;;12.73;5.50;;;;;;;21.36;69.15;101161.06;3571460;40;20059;-67
2023/06/26 04:44:49;;;;;;;12.40;5.13;;;;;;;21.34;69.65;101171.25;3572734;40;20052;-67
2023/06/26 04:47:15;;;;;;;10.10;5.00;;;;;;;21.22;69.65;101148.78;3562721;40;20103;-68
2023/06/26 04:49:45;;;;;;;11.07;4.88;;;;;;;21.32;70.11;101182.34;3574974;40;20394;-67
2023/06/26 04:52:13;;;;;;;14.40;5.30;;;;;;;21.09;70.22;101154.63;3563526;40;20060;-69
2023/06/26 04:54:39;;;;;;;11.45;5.30;;;;;;;21.26;70.22;101182.97;3570084;39;20054;-68
2023/06/26 04:57:05;;;;;;;16.27;5.43;;;;;;;21.31;70.31;101177.03;3565280;40;20118;-68
2023/06/26 04:59:31;;;;;;;18.35;6.32;;;;;;;21.27;69.63;101167.44;3572631;40;20069;-68
2023/06/26 05:01:57;;;;;;;12.50;5.05;;;;;;;21.08;69.81;101139.22;3560170;40;20062;-69
2023/06/26 05:04:23;;;;;;;13.65;5.30;;;;;;;21.39;69.47;101181.78;3569252;40;20075;-66
2023/06/26 05:06:48;;;;;;;9.95;4.65;;;;;;;21.37;70.01;101184.66;3570670;40;20048;-70
2023/06/26 05:09:14;;;;;;;12.52;5.18;;;;;;;21.42;69.66;101185.03;3573898;40;20111;-68
2023/06/26 05:11:40;;;;;;;13.50;5.20;;;;;;;21.47;69.27;101201.84;3573173;40;20092;-68
2023/06/26 05:14:09;;;;;;;11.98;5.00;;;;;;;21.46;69.52;101194.66;3573141;40;20086;-69
2023/06/26 05:16:35;;;;;;;10.10;4.78;;;;;;;21.47;68.85;101204.59;3576159;40;20251;-68
2023/06/26 05:19:01;;;;;;;15.32;5.35;;;;;;;21.36;68.55;101193.88;3573705;40;21749;-69
2023/06/26 05:21:28;;;;;;;9.20;4.53;;;;;;;21.28;69.27;101197.38;3568937;40;20060;-70
2023/06/26 05:23:57;;;;;;;12.75;4.90;;;;;;;21.23;69.55;101204.31;3570839;40;20127;-69
2023/06/26 05:26:25;;;;;;;14.40;4.70;;;;;;;21.23;69.14;101207.03;3574580;40;20071;-68
2023/06/26 05:28:51;;;;;;;13.30;5.38;;;;;;;21.17;69.10;101202.19;3562896;40;20134;-69
2023/06/26 05:31:17;;;;;;;13.93;5.00;;;;;;;21.17;69.59;101202.19;3575641;40;20052;-69
2023/06/26 05:33:48;;;;;;;14.25;4.88;;;;;;;21.34;68.34;101206.81;3574178;40;20056;-69
2023/06/26 05:36:18;;;;;;;11.15;4.03;;;;;;;21.27;67.75;101194.78;3570919;40;20389;-68
2023/06/26 05:38:43;;;;;;;16.05;5.10;;;;;;;21.45;67.47;101217.56;3563866;40;20059;-69
2023/06/26 05:41:09;;;;;;;10.18;4.30;;;;;;;21.44;67.22;101217.69;3576621;40;20403;-69
2023/06/26 05:43:35;;;;;;;12.73;4.28;;;;;;;21.27;67.19;101197.50;3576472;40;20052;-69
2023/06/26 05:46:01;;;;;;;11.73;3.97;;;;;;;21.46;66.76;101226.63;3572093;40;20067;-69
2023/06/26 05:48:27;;;;;;;11.75;4.28;;;;;;;21.45;66.96;101223.03;3576365;40;20055;-69
2023/06/26 05:50:53;;;;;;;15.07;4.35;;;;;;;21.47;66.32;101228.31;3573303;40;20066;-67
2023/06/26 05:53:18;;;;;;;13.10;4.03;;;;;;;21.50;66.27;101228.91;3575874;40;20379;-68
2023/06/26 05:55:44;;;;;;;12.38;3.95;;;;;;;21.35;65.94;101197.63;3575294;40;20122;-69
2023/06/26 05:58:11;;;;;;;12.35;4.15;;;;;;;21.63;66.07;101238.56;3575718;40;20129;-68
2023/06/26 06:00:40;;;;;;;12.75;4.15;;;;;;;21.59;65.55;101237.16;3574652;40;20056;-67
2023/06/26 06:03:05;;;;;;;8.48;3.80;;;;;;;21.50;65.02;101217.06;3565517;40;20092;-69
2023/06/26 06:05:31;;;;;;;11.85;3.88;;;;;;;21.69;64.83;101249.78;3569896;40;20056;-69
2023/06/26 06:07:56;;;;;;;9.25;3.45;;;;;;;21.64;64.09;101243.03;3574070;40;20067;-69
2023/06/26 06:10:22;;;;;;;9.85;3.88;;;;;;;21.68;63.96;101244.44;3574399;40;20358;-69
2023/06/26 06:12:48;;;;;;;9.18;3.60;;;;;;;21.77;63.74;101254.44;3571957;40;20054;-69
2023/06/26 06:15:14;;;;;;;9.88;3.85;;;;;;;21.87;63.03;101259.84;3575109;40;20111;-69
2023/06/26 06:17:39;;;;;;;11.15;3.65;;;;;;;21.94;63.12;101267.25;3574870;40;20059;-69
2023/06/26 06:20:06;;;;;;;9.48;3.45;;;;;;;21.99;62.94;101272.25;3575351;40;20057;-69
2023/06/26 06:22:32;;;;;;;13.30;3.67;;;;;;;21.98;62.82;101274.16;3572633;40;20092;-68
2023/06/26 06:24:57;;;;;;;10.95;3.70;;;;;;;22.06;61.91;101280.69;3572909;40;20083;-69
2023/06/26 06:27:23;;;;;;;10.23;3.53;;;;;;;22.12;61.31;101285.53;3574791;40;20307;-71
2023/06/26 06:29:49;;;;;;;6.93;2.63;;;;;;;22.22;60.97;101280.84;3570702;40;20336;-70
2023/06/26 06:32:14;;;;;;;9.63;3.30;;;;;;;22.12;60.69;101252.69;3575452;40;20052;-69
2023/06/26 06:34:40;;;;;;;8.95;3.05;;;;;;;22.19;59.28;101254.63;3573556;40;20099;-70
2023/06/26 06:37:06;;;;;;;8.45;2.83;;;;;;;22.41;59.45;101277.03;3574284;40;20451;-70
2023/06/26 06:39:31;;;;;;;7.20;2.90;;;;;;;22.53;59.28;101291.34;3567191;40;20041;-68
2023/06/26 06:41:57;;;;;;;10.05;3.00;;;;;;;22.55;58.62;101290.16;3568687;40;20063;-71
2023/06/26 06:44:23;;;;;;;9.75;2.80;;;;;;;22.69;58.75;101294.19;3577935;40;20060;-70
2023/06/26 06:46:48;;;;;;;8.82;2.92;;;;;;;22.84;58.55;101299.94;3577774;40;20071;-71
2023/06/26 06:49:14;;;;;;;8.43;3.20;;;;;;;22.97;57.57;101305.00;3567110;40;20068;-72
2023/06/26 06:51:40;;;;;;;7.53;2.60;;;;;;;23.12;57.75;101311.53;3573103;40;20086;-72
2023/06/26 06:54:05;;;;;;;10.68;3.00;;;;;;;23.14;57.15;101291.16;3574124;40;20107;-70
2023/06/26 06:56:31;;;;;;;6.90;3.10;;;;;;;23.29;57.20;101305.13;3576306;40;20078;-71
2023/06/26 06:58:57;;;;;;;5.10;2.58;;;;;;;23.48;56.46;101314.09;3575477;40;20411;-71
2023/06/26 07:01:22;;;;;;;6.85;2.65;;;;;;;23.01;56.06;101235.06;3573572;40;20060;-72
2023/06/26 07:03:48;;;;;;;5.28;2.45;;;;;;;23.56;56.09;101333.31;3573142;40;20086;-70
2023/06/26 07:06:14;;;;;;;8.23;2.88;;;;;;;23.60;56.17;101340.19;3570170;40;20059;-71
2023/06/26 07:08:39;;;;;;;10.30;2.83;;;;;;;23.55;55.82;101348.06;3575063;40;20333;-71
2023/06/26 07:11:05;;;;;;;5.35;2.40;;;;;;;23.49;56.03;101344.09;3576153;40;20048;-72
2023/06/26 07:13:31;;;;;;;7.13;2.13;;;;;;;23.46;56.20;101332.59;3574460;40;20060;-71
2023/06/26 07:15:56;;;;;;;6.53;2.60;;;;;;;23.57;55.67;101346.88;3574144;40;20078;-70
2023/06/26 07:18:22;;;;;;;7.45;2.47;;;;;;;23.52;55.61;101352.00;3576715;40;20272;-72
2023/06/26 07:20:48;;;;;;;6.88;2.97;;;;;;;23.33;55.91;101331.19;3574975;40;20063;-72
2023/06/26 07:23:13;;;;;;;4.95;2.35;;;;;;;23.43;56.25;101361.22;3571403;40;20067;-72
2023/06/26 07:25:39;;;;;;;4.15;2.05;;;;;;;23.31;56.19;101346.97;3575702;40;20056;-72
2023/06/26 07:28:11;;;;;;;5.75;2.40;;;;;;;23.44;56.36;101368.44;3574041;40;20068;-72
2023/06/26 07:30:37;;;;;;;4.47;2.40;;;;;;;23.49;56.01;101370.69;3579042;40;20117;-70
2023/06/26 07:33:03;;;;;;;8.20;2.20;;;;;;;23.42;56.45;101369.63;3574720;40;20052;-72
2023/06/26 07:35:29;;;;;;;5.43;2.58;;;;;;;23.59;56.67;101382.38;3577473;40;20099;-71
2023/06/26 07:37:54;;;;;;;5.13;2.60;;;;;;;23.78;55.04;101375.78;3574241;40;20387;-72
2023/06/26 07:40:20;;;;;;;8.13;2.47;;;;;;;23.81;55.44;101380.94;3569429;40;20061;-71
2023/06/26 07:42:46;;;;;;;8.45;2.65;;;;;;;23.78;54.26;101376.63;3575479;40;20115;-73
2023/06/26 07:45:12;;;;;;;5.10;2.30;;;;;;;23.65;54.36;101392.69;3577555;40;20334;-72
2023/06/26 07:47:39;;;;;;;6.20;2.47;;;;;;;23.70;54.72;101390.34;3572960;40;20068;-73
2023/06/26 07:50:06;;;;;;;6.32;2.50;;;;;;;23.82;53.98;101394.50;3573912;40;20461;-70
2023/06/26 07:52:31;;;;;;;5.07;2.03;;;;;;;23.94;53.10;101396.91;3575664;40;20087;-71
2023/06/26 07:54:58;;;;;;;3.75;2.00;;;;;;;24.00;53.33;101401.75;3573918;40;20319;-73
2023/06/26 07:57:24;;;;;;;3.83;1.90;;;;;;;24.02;52.88;101405.19;3574979;40;20885;-70
2023/06/26 07:59:53;;;;;;;4.07;2.03;;;;;;;23.94;51.84;101396.91;3573559;40;20049;-71
2023/06/26 08:02:18;;;;;;;2.58;1.63;;;;;;;24.08;52.13;101415.50;3578033;40;20066;-71
2023/06/26 08:04:44;;;;;;;3.70;2.13;;;;;;;24.21;51.03;101415.00;3574173;40;20065;-73
2023/06/26 08:07:10;;;;;;;4.70;2.20;;;;;;;24.29;50.18;101413.13;3574394;40;20051;-72
2023/06/26 08:09:36;;;;;;;4.65;1.90;;;;;;;24.37;50.32;101411.41;3574910;40;20072;-72
2023/06/26 08:12:02;;;;;;;3.60;1.92;;;;;;;24.42;49.35;101411.78;3573631;40;20072;-71
2023/06/26 08:14:28;;;;;;;2.50;1.50;;;;;;;24.28;49.36;101413.28;3574412;40;20056;-71
2023/06/26 08:16:54;;;;;;;2.97;1.33;;;;;;;24.16;45.63;101418.25;3574810;40;20110;-73
2023/06/26 08:19:20;;;;;;;1.40;1.15;;;;;;;24.09;45.81;101423.56;3572002;40;20493;-72
2023/06/26 08:21:47;;;;;;;4.47;2.05;;;;;;;23.95;46.22;101420.63;3573277;40;20063;-72
2023/06/26 08:24:16;;;;;;;2.05;1.20;;;;;;;23.88;47.28;101427.78;3572621;40;20060;-74
2023/06/26 08:26:41;;;;;;;5.55;1.70;;;;;;;23.84;48.11;101428.13;3574658;40;20048;-74
2023/06/26 08:29:10;;;;;;;2.72;1.67;;;;;;;23.38;48.00;101331.56;3571349;40;20293;-72
2023/06/26 08:31:37;;;;;;;5.65;1.48;;;;;;;24.14;47.02;101431.31;3575178;40;20053;-72
2023/06/26 08:34:04;;;;;;;4.45;1.48;;;;;;;24.06;46.41;101379.09;3571995;40;20086;-73
2023/06/26 08:36:31;;;;;;;6.53;1.58;;;;;;;24.48;46.31;101408.34;3572993;40;20065;-72
2023/06/26 08:38:57;;;;;;;3.55;1.45;;;;;;;24.76;46.81;101425.34;3570782;40;20056;-72
2023/06/26 08:41:23;;;;;;;5.20;1.40;;;;;;;24.96;46.35;101428.59;3573373;40;20146;-72
2023/06/26 08:43:52;;;;;;;2.15;1.17;;;;;;;25.23;45.15;101433.72;3577056;39;20124;-73
2023/06/26 08:46:19;;;;;;;6.45;1.67;;;;;;;25.32;44.14;101430.97;3569585;40;20463;-73
2023/06/26 08:49:17;;;;;;;4.35;1.45;;;;;;;25.06;44.06;101395.41;3572425;40;20165;-72
2023/06/26 08:51:55;;;;;;;3.13;1.38;;;;;;;25.31;45.64;101430.09;3572542;40;20149;-73
2023/06/26 08:54:30;;;;;;;6.10;1.75;;;;;;;25.45;44.35;101447.78;3571300;40;20175;-72
2023/06/26 08:56:59;;;;;;;4.57;2.08;;;;;;;25.33;45.16;101422.50;3570543;40;20059;-71
2023/06/26 08:59:25;;;;;;;3.58;1.40;;;;;;;25.66;42.66;101459.06;3572053;40;20292;-72
2023/06/26 09:01:51;;;;;;;5.70;1.40;;;;;;;25.78;42.30;101451.22;3571265;40;20165;-73
2023/06/26 09:04:17;;;;;;;3.88;1.30;;;;;;;25.76;40.36;101422.19;3571549;40;20318;-72
2023/06/26 09:06:44;;;;;;;5.00;1.65;;;;;;;26.08;38.92;101460.59;3565158;40;20056;-72
2023/06/26 09:09:10;;;;;;;3.58;1.60;;;;;;;26.07;40.25;101442.34;3571021;40;20060;-72
2023/06/26 09:11:36;;;;;;;3.63;1.23;;;;;;;26.33;40.57;101460.44;3573951;40;20059;-73
2023/06/26 09:14:06;;;;;;;3.28;1.42;;;;;;;26.45;40.36;101460.84;3572094;40;20481;-72
2023/06/26 09:16:40;;;;;;;3.72;1.30;;;;;;;26.53;40.50;101464.44;3572864;40;20118;-74
2023/06/26 09:19:11;;;;;;;4.80;1.48;;;;;;;26.74;40.97;101465.69;3571611;40;20045;-73
2023/06/26 09:21:42;;;;;;;5.53;1.60;;;;;;;26.42;40.48;101475.00;3573938;40;20286;-73
2023/06/26 09:24:09;;;;;;;3.88;1.52;;;;;;;26.17;40.20;101475.19;3574160;40;20056;-72
2023/06/26 09:26:40;;;;;;;2.78;1.15;;;;;;;26.19;39.48;101478.59;3570210;40;20366;-73
2023/06/26 09:29:07;;;;;;;3.45;1.35;;;;;;;26.20;38.69;101472.06;3573870;40;20064;-72
2023/06/26 09:31:37;;;;;;;2.67;1.10;;;;;;;26.36;39.40;101477.47;3574115;40;20067;-73
2023/06/26 09:34:03;;;;;;;3.95;1.27;;;;;;;26.45;38.17;101478.28;3576881;40;20056;-73
2023/06/26 09:36:36;;;;;;;1.33;0.80;;;;;;;26.64;38.75;101471.41;3565017;40;20125;-72
2023/06/26 09:39:10;;;;;;;4.03;1.58;;;;;;;26.89;38.97;101485.88;3575926;40;20170;-73
2023/06/26 09:41:40;;;;;;;1.80;1.15;;;;;;;26.83;37.62;101481.09;3573070;40;20052;-73
2023/06/26 09:44:07;;;;;;;4.65;1.50;;;;;;;26.82;38.48;101496.78;3569473;40;20134;-73
2023/06/26 09:46:34;;;;;;;4.75;1.40;;;;;;;26.60;37.91;101493.00;3569849;40;20108;-72
2023/06/26 09:49:08;;;;;;;2.80;1.00;;;;;;;26.48;37.99;101511.00;3561373;40;20060;-73
2023/06/26 09:51:37;;;;;;;7.18;1.17;;;;;;;26.63;39.25;101505.56;3576092;40;20105;-73
2023/06/26 09:54:04;;;;;;;3.83;1.25;;;;;;;26.71;37.04;101504.66;3577586;40;20370;-72
2023/06/26 09:56:33;;;;;;;2.70;0.90;;;;;;;26.95;37.47;101523.75;3571712;40;20074;-73
2023/06/26 09:59:02;;;;;;;3.85;1.20;;;;;;;26.81;36.30;101506.13;3576038;40;20062;-74
2023/06/26 10:01:29;;;;;;;1.95;1.10;;;;;;;27.00;35.74;101498.38;3570510;40;20117;-73
2023/06/26 10:03:58;;;;;;;3.42;1.13;;;;;;;27.24;37.87;101491.78;3576554;40;20056;-73
2023/06/26 10:06:48;;;;;;;3.63;1.08;;;;;;;27.52;35.69;101501.13;3574720;40;20355;-73
2023/06/26 10:09:18;;;;;;;2.10;1.15;;;;;;;27.61;32.04;101525.91;3566154;40;20063;-73
2023/06/26 10:11:59;;;;;;;1.58;1.02;;;;;;;27.75;32.23;101516.75;3574663;40;20059;-73
2023/06/26 10:14:32;;;;;;;3.55;0.95;;;;;;;27.53;32.11;101522.19;3571929;40;20068;-73
2023/06/26 10:17:01;;;;;;;;;;;;;;;26.88;33.45;101502.63;3573883;40;20056;-73
2023/06/26 10:19:29;;;;;;;2.47;0.88;;;;;;;26.72;34.46;101503.59;3571978;40;19944;-72
2023/06/26 10:21:59;;;;;;;1.42;0.80;;;;;;;26.69;34.98;101479.16;3572312;40;20480;-72
2023/06/26 10:24:30;;;;;;;2.53;1.25;;;;;;;27.07;32.76;101513.13;3573743;40;20064;-73
2023/06/26 10:27:05;;;;;;;2.42;0.82;;;;;;;27.24;33.90;101533.19;3571230;40;20053;-72
2023/06/26 10:29:35;;;;;;;2.72;1.02;;;;;;;27.14;33.67;101527.06;3562223;40;20060;-72
2023/06/26 10:32:05;;;;;;;2.30;1.25;;;;;;;26.91;33.54;101511.38;3577133;40;20498;-74
2023/06/26 10:34:31;;;;;;;3.15;1.27;;;;;;;26.93;34.12;101525.84;3579056;40;20101;-72
2023/06/26 10:37:04;;;;;;;2.83;1.30;;;;;;;26.86;35.35;101519.34;3568980;40;20053;-72
2023/06/26 10:39:59;;;;;;;2.75;1.00;;;;;;;26.67;34.59;101486.75;3579378;40;20056;-73
2023/06/26 10:42:37;;;;;;;4.57;1.08;;;;;;;26.52;35.47;101503.25;3577036;40;20741;-71
2023/06/26 10:45:14;;;;;;;3.45;1.00;;;;;;;26.62;34.00;101539.72;3576874;40;20363;-71
2023/06/26 10:47:42;;;;;;;3.30;1.38;;;;;;;26.35;34.61;101555.69;3573353;40;20065;-73
2023/06/26 10:50:18;;;;;;;2.63;1.27;;;;;;;26.29;34.34;101539.00;3577835;40;20059;-73
2023/06/26 10:52:43;;;;;;;3.92;1.25;;;;;;;26.12;33.52;101539.09;3579095;40;20112;-71
2023/06/26 10:55:09;;;;;;;2.75;1.10;;;;;;;26.30;34.07;101543.50;3566808;40;20064;-73
2023/06/26 10:57:38;;;;;;;2.08;0.95;;;;;;;26.31;33.64;101536.94;3578124;40;20108;-72
2023/06/26 11:00:14;;;;;;;2.42;1.20;;;;;;;26.23;34.40;101542.47;3576949;40;20072;-72
2023/06/26 11:02:50;;;;;;;2.22;1.30;;;;;;;26.09;34.79;101550.47;3575912;40;20060;-73
2023/06/26 11:05:33;;;;;;;4.38;1.23;;;;;;;25.64;33.53;101463.88;3577055;40;20052;-72
2023/06/26 11:08:11;;;;;;;1.40;1.13;;;;;;;26.35;33.66;101571.38;3571387;40;20054;-73
2023/06/26 11:10:59;;;;;;;3.00;1.42;;;;;;;26.47;34.11;101578.19;3573921;40;20056;-73
2023/06/26 11:13:26;;;;;;;3.80;0.93;;;;;;;26.44;34.17;101550.13;3574149;40;20076;-73
2023/06/26 11:15:52;;;;;;;1.98;1.15;;;;;;;26.87;34.36;101548.66;3577421;40;20068;-73
2023/06/26 11:18:18;;;;;;;4.03;0.98;;;;;;;27.13;32.83;101570.34;3574455;40;20053;-73
2023/06/26 11:20:44;;;;;;;1.35;0.98;;;;;;;27.22;31.35;101571.19;3570725;40;20113;-73
2023/06/26 11:23:11;;;;;;;2.42;0.88;;;;;;;27.42;31.22;101568.75;3578145;40;20056;-73
2023/06/26 11:25:38;;;;;;;2.05;1.00;;;;;;;27.58;30.99;101576.00;3577504;40;20052;-73
2023/06/26 11:28:05;;;;;;;2.10;1.05;;;;;;;27.72;30.82;101530.94;3576190;40;20125;-72